createdAt,value
2022-08-04T00:00:24.555Z,3.50
2022-08-04T00:03:12.358Z,6.55
2022-08-04T00:06:17.541Z,5.50
2022-08-04T00:08:55.583Z,6.85
2022-08-04T00:11:31.457Z,3.65
2022-08-04T00:14:15.580Z,4.82
2022-08-04T00:16:49.618Z,4.03
2022-08-04T00:19:38.721Z,3.45
2022-08-04T00:22:13.372Z,5.75
2022-08-04T00:24:45.846Z,3.70
2022-08-04T00:27:18.985Z,3.08
2022-08-04T00:29:53.122Z,2.85
2022-08-04T00:32:31.102Z,3.22
2022-08-04T00:35:09.731Z,8.07
2022-08-04T00:37:46.872Z,8.13
2022-08-04T00:40:45.084Z,3.70
2022-08-04T00:43:34.185Z,5.30
2022-08-04T00:46:33.005Z,3.58
2022-08-04T00:49:39.088Z,4.00
2022-08-04T00:52:31.449Z,3.42
2022-08-04T00:55:23.547Z,5.05
2022-08-04T00:58:14.304Z,5.10
2022-08-04T01:00:55.475Z,8.23
2022-08-04T01:03:35.482Z,4.88
2022-08-04T01:06:44.153Z,4.35
2022-08-04T01:09:36.851Z,4.63
2022-08-04T01:12:41.085Z,6.38
2022-08-04T01:15:31.628Z,4.20
2022-08-04T01:18:30.129Z,2.83
2022-08-04T01:21:10.060Z,5.00
2022-08-04T01:24:20.528Z,3.70
2022-08-04T01:27:09.608Z,3.08
2022-08-04T01:29:49.815Z,5.25
2022-08-04T01:32:31.851Z,4.70
2022-08-04T01:35:46.755Z,4.90
2022-08-04T01:38:27.304Z,3.80
2022-08-04T01:41:08.019Z,3.53
2022-08-04T01:43:45.112Z,4.95
2022-08-04T01:46:18.307Z,3.28
2022-08-04T01:48:55.583Z,3.03
2022-08-04T01:51:28.260Z,2.75
2022-08-04T01:54:00.223Z,4.45
2022-08-04T01:56:32.192Z,2.60
2022-08-04T01:59:04.336Z,3.58
2022-08-04T02:01:37.293Z,4.97
2022-08-04T02:04:23.864Z,2.60
2022-08-04T02:07:19.981Z,3.15
2022-08-04T02:09:54.444Z,6.05
2022-08-04T02:12:58.075Z,2.50
2022-08-04T02:15:47.459Z,3.20
2022-08-04T02:18:30.758Z,2.85
2022-08-04T02:21:03.177Z,4.40
2022-08-04T02:23:42.162Z,3.85
2022-08-04T02:26:22.653Z,2.53
2022-08-04T02:29:15.678Z,3.17
2022-08-04T02:31:56.711Z,2.60
2022-08-04T02:35:07.757Z,3.45
2022-08-04T02:37:47.691Z,3.55
2022-08-04T02:40:22.351Z,3.83
2022-08-04T02:42:57.658Z,5.20
2022-08-04T02:45:31.901Z,3.45
2022-08-04T02:48:30.481Z,4.30
2022-08-04T02:50:58.137Z,4.50
2022-08-04T02:53:33.329Z,3.50
2022-08-04T02:56:11.585Z,3.55
2022-08-04T02:58:49.459Z,4.40
2022-08-04T03:01:23.285Z,3.67
2022-08-04T03:04:04.425Z,3.85
2022-08-04T03:07:05.006Z,5.40
2022-08-04T03:09:36.895Z,3.38
2022-08-04T03:12:23.978Z,4.72
2022-08-04T03:15:46.374Z,4.90
2022-08-04T03:18:45.802Z,5.05
2022-08-04T03:21:45.495Z,4.00
2022-08-04T03:24:35.891Z,6.55
2022-08-04T03:27:39.848Z,4.55
2022-08-04T03:30:30.513Z,6.47
2022-08-04T03:33:05.234Z,4.20
2022-08-04T03:35:58.130Z,4.80
2022-08-04T03:38:54.984Z,4.10
2022-08-04T03:42:04.468Z,4.80
2022-08-04T03:45:23.680Z,5.65
2022-08-04T03:48:08.394Z,5.60
2022-08-04T03:51:39.535Z,4.30
2022-08-04T03:54:44.273Z,6.38
2022-08-04T03:57:50.551Z,7.45
2022-08-04T04:00:26.954Z,4.43
2022-08-04T04:03:33.927Z,5.22
2022-08-04T04:06:10.970Z,6.80
2022-08-04T04:09:20.794Z,7.00
2022-08-04T04:12:16.488Z,6.15
2022-08-04T04:15:16.986Z,5.22
2022-08-04T04:18:07.241Z,6.53
2022-08-04T04:20:50.865Z,5.47
2022-08-04T04:23:41.229Z,5.80
2022-08-04T04:26:40.784Z,5.00
2022-08-04T04:29:15.713Z,5.95
2022-08-04T04:31:57.665Z,7.53
2022-08-04T04:35:03.566Z,7.47
2022-08-04T04:37:48.863Z,6.82
2022-08-04T04:40:46.708Z,9.45
2022-08-04T04:43:52.163Z,8.43
2022-08-04T04:46:32.942Z,9.18
2022-08-04T04:49:29.224Z,6.07
2022-08-04T04:52:11.106Z,6.75
2022-08-04T04:55:04.644Z,5.57
2022-08-04T04:57:54.370Z,6.20
2022-08-04T05:00:49.147Z,5.85
2022-08-04T05:04:05.095Z,7.00
2022-08-04T05:07:07.651Z,7.22
2022-08-04T05:10:11.341Z,7.05
2022-08-04T05:14:38.143Z,6.28
2022-08-04T05:16:12.638Z,9.85
2022-08-04T05:18:54.936Z,9.18
2022-08-04T05:21:40.086Z,5.53
2022-08-04T05:24:16.652Z,6.68
2022-08-04T05:26:56.252Z,8.88
2022-08-04T05:29:35.690Z,5.15
2022-08-04T05:32:17.695Z,5.13
2022-08-04T05:34:58.149Z,7.68
2022-08-04T05:37:35.127Z,12.48
2022-08-04T05:40:08.921Z,7.13
2022-08-04T05:42:41.731Z,7.35
2022-08-04T05:45:13.927Z,6.55
2022-08-04T05:47:46.853Z,5.13
2022-08-04T05:50:19.901Z,8.48
2022-08-04T05:52:54.532Z,5.38
2022-08-04T05:55:59.194Z,9.02
2022-08-04T05:58:25.478Z,6.47
2022-08-04T06:01:00.092Z,7.78
2022-08-04T06:03:35.091Z,7.85
2022-08-04T06:06:13.175Z,5.97
2022-08-04T06:08:45.115Z,8.75
2022-08-04T06:11:19.337Z,11.20
2022-08-04T06:13:57.513Z,6.32
2022-08-04T06:16:39.521Z,6.85
2022-08-04T06:20:02.430Z,7.85
2022-08-04T06:22:09.108Z,6.40
2022-08-04T06:24:41.899Z,6.43
2022-08-04T06:27:15.597Z,6.43
2022-08-04T06:29:53.052Z,10.05
2022-08-04T06:32:35.620Z,7.28
2022-08-04T06:35:14.714Z,4.82
2022-08-04T06:37:47.682Z,5.25
2022-08-04T06:40:32.533Z,10.35
2022-08-04T06:43:07.319Z,8.48
2022-08-04T06:45:44.258Z,4.95
2022-08-04T06:48:18.239Z,5.90
2022-08-04T06:51:28.277Z,7.63
2022-08-04T06:53:45.292Z,10.02
2022-08-04T06:56:19.216Z,7.70
2022-08-04T06:58:55.333Z,9.35
2022-08-04T07:01:28.213Z,6.65
2022-08-04T07:04:00.389Z,3.80
2022-08-04T07:06:33.259Z,7.22
2022-08-04T07:09:09.182Z,3.92
2022-08-04T07:11:44.657Z,4.03
2022-08-04T07:14:18.017Z,4.80
2022-08-04T07:16:51.079Z,3.45
2022-08-04T07:19:25.393Z,4.13
2022-08-04T07:22:25.002Z,3.25
2022-08-04T07:24:58.439Z,7.10
2022-08-04T07:27:47.767Z,4.45
2022-08-04T07:30:24.894Z,4.35
2022-08-04T07:32:59.650Z,6.25
2022-08-04T07:36:05.295Z,6.18
2022-08-04T07:38:28.954Z,6.32
2022-08-04T07:41:03.918Z,4.20
2022-08-04T07:43:37.976Z,7.35
2022-08-04T07:46:11.021Z,6.45
2022-08-04T07:48:43.078Z,4.35
2022-08-04T07:51:17.101Z,6.80
2022-08-04T07:53:54.029Z,3.67
2022-08-04T07:56:28.623Z,7.60
2022-08-04T07:59:01.636Z,5.97
2022-08-04T08:01:36.615Z,6.22
2022-08-04T08:04:10.393Z,7.10
2022-08-04T08:06:43.791Z,4.35
2022-08-04T08:09:18.608Z,7.63
2022-08-04T08:12:38.226Z,10.80
2022-08-04T08:14:49.359Z,4.95
2022-08-04T08:17:21.479Z,3.75
2022-08-04T08:19:58.152Z,4.93
2022-08-04T08:22:31.967Z,5.40
2022-08-04T08:25:06.340Z,5.28
2022-08-04T08:27:38.956Z,5.57
2022-08-04T08:30:31.936Z,6.25
2022-08-04T08:33:15.104Z,3.97
2022-08-04T08:36:10.158Z,5.95
2022-08-04T08:39:03.765Z,4.72
2022-08-04T08:41:47.704Z,9.02
2022-08-04T08:44:57.784Z,4.47
2022-08-04T08:48:05.998Z,4.20
2022-08-04T08:50:57.418Z,5.50
2022-08-04T08:53:54.789Z,3.92
2022-08-04T08:56:32.682Z,7.03
2022-08-04T08:59:15.263Z,5.05
2022-08-04T09:02:16.812Z,5.32
2022-08-04T09:04:54.724Z,4.85
2022-08-04T09:07:38.942Z,4.82
2022-08-04T09:10:16.859Z,4.10
2022-08-04T09:13:01.417Z,6.95
2022-08-04T09:15:54.259Z,4.22
2022-08-04T09:18:52.912Z,5.70
2022-08-04T09:21:33.847Z,6.07
2022-08-04T09:24:35.077Z,5.50
2022-08-04T09:27:20.855Z,3.97
2022-08-04T09:30:04.147Z,5.20
2022-08-04T09:32:38.994Z,5.22
2022-08-04T09:35:19.696Z,4.63
2022-08-04T09:38:00.872Z,5.25
2022-08-04T09:40:57.141Z,5.03
2022-08-04T09:43:58.896Z,6.15
2022-08-04T09:47:20.737Z,5.20
2022-08-04T09:50:11.796Z,8.23
2022-08-04T09:52:50.165Z,4.05
2022-08-04T09:55:53.873Z,7.85
2022-08-04T09:58:50.410Z,5.45
2022-08-04T10:01:25.038Z,10.23
2022-08-04T10:04:00.664Z,4.15
2022-08-04T10:06:53.658Z,7.28
2022-08-04T10:10:10.621Z,6.35
2022-08-04T10:13:07.747Z,6.20
2022-08-04T10:16:01.203Z,4.68
2022-08-04T10:18:53.864Z,5.00
2022-08-04T10:22:27.053Z,4.32
2022-08-04T10:25:37.498Z,3.80
2022-08-04T10:28:20.094Z,5.63
2022-08-04T10:31:07.172Z,7.20
2022-08-04T10:33:50.074Z,5.05
2022-08-04T10:36:27.393Z,7.07
2022-08-04T10:39:12.165Z,8.93
2022-08-04T10:42:20.363Z,5.30
2022-08-04T10:45:09.046Z,5.15
2022-08-04T10:47:59.277Z,5.18
2022-08-04T10:50:37.566Z,5.25
2022-08-04T10:53:18.789Z,4.82
2022-08-04T10:56:06.297Z,4.80
2022-08-04T10:58:49.066Z,5.85
2022-08-04T11:02:03.040Z,5.53
2022-08-04T11:04:49.826Z,6.28
2022-08-04T11:07:22.975Z,9.60
2022-08-04T11:09:55.572Z,6.15
2022-08-04T11:12:29.787Z,7.43
2022-08-04T11:15:13.666Z,5.80
2022-08-04T11:17:52.280Z,5.55
2022-08-04T11:20:35.861Z,4.65
2022-08-04T11:23:13.272Z,5.82
2022-08-04T11:25:51.541Z,5.53
2022-08-04T11:28:55.824Z,5.40
2022-08-04T11:31:49.806Z,3.70
2022-08-04T11:34:28.181Z,4.63
2022-08-04T11:37:25.610Z,6.70
2022-08-04T11:40:27.979Z,6.47
2022-08-04T11:43:08.654Z,8.00
2022-08-04T11:45:54.647Z,4.32
2022-08-04T11:48:35.882Z,5.43
2022-08-04T11:51:09.493Z,4.45
2022-08-04T11:53:43.857Z,6.00
2022-08-04T11:56:36.582Z,4.65
2022-08-04T11:59:09.108Z,4.53
2022-08-04T12:02:02.609Z,5.45
2022-08-04T12:04:58.050Z,7.50
2022-08-04T12:07:43.074Z,6.00
2022-08-04T12:10:37.859Z,4.88
2022-08-04T12:13:28.397Z,4.50
2022-08-04T12:16:30.346Z,4.20
2022-08-04T12:19:13.711Z,4.60
2022-08-04T12:22:00.157Z,4.53
2022-08-04T12:24:43.080Z,5.53
2022-08-04T12:27:30.652Z,6.95
2022-08-04T12:30:57.761Z,5.78
2022-08-04T12:33:17.999Z,5.45
2022-08-04T12:36:11.323Z,4.80
2022-08-04T12:39:10.569Z,8.15
2022-08-04T12:42:01.081Z,9.20
2022-08-04T12:44:41.438Z,6.90
2022-08-04T12:47:27.748Z,5.22
2022-08-04T12:50:05.460Z,8.23
2022-08-04T12:53:03.769Z,7.78
2022-08-04T12:55:37.325Z,8.00
2022-08-04T12:58:42.245Z,6.35
2022-08-04T13:02:09.937Z,7.78
2022-08-04T13:04:15.490Z,10.18
2022-08-04T13:07:08.040Z,7.28
2022-08-04T13:09:41.329Z,11.15
2022-08-04T13:12:20.891Z,9.20
2022-08-04T13:15:10.037Z,7.05
2022-08-04T13:17:53.160Z,5.65
2022-08-04T13:20:36.660Z,12.82
2022-08-04T13:23:11.080Z,6.00
2022-08-04T13:26:44.208Z,6.45
2022-08-04T13:28:48.293Z,6.20
2022-08-04T13:31:23.544Z,5.45
2022-08-04T13:34:07.913Z,5.97
2022-08-04T13:36:56.213Z,10.40
2022-08-04T13:39:29.713Z,11.13
2022-08-04T13:42:08.289Z,6.70
2022-08-04T13:44:45.584Z,8.20
2022-08-04T13:47:22.680Z,6.03
2022-08-04T13:50:29.848Z,5.53
2022-08-04T13:53:02.814Z,6.20
2022-08-04T13:55:39.440Z,5.80
2022-08-04T13:58:21.656Z,4.80
2022-08-04T14:00:55.024Z,6.63
2022-08-04T14:03:54.210Z,5.13
2022-08-04T14:06:34.951Z,8.10
2022-08-04T14:09:14.971Z,6.10
2022-08-04T14:12:08.809Z,9.18
2022-08-04T14:14:48.909Z,8.95
2022-08-04T14:17:29.962Z,4.72
2022-08-04T14:20:04.260Z,6.65
2022-08-04T14:22:37.579Z,7.80
2022-08-04T14:25:15.323Z,7.90
2022-08-04T14:27:57.435Z,5.68
2022-08-04T14:30:31.071Z,6.63
2022-08-04T14:34:01.505Z,7.85
2022-08-04T14:36:04.056Z,10.70
2022-08-04T14:38:43.979Z,6.78
2022-08-04T14:41:18.261Z,7.85
2022-08-04T14:43:59.978Z,6.63
2022-08-04T14:46:36.481Z,6.13
2022-08-04T14:49:13.285Z,8.60
2022-08-04T14:51:59.626Z,5.65
2022-08-04T14:54:34.007Z,8.73
2022-08-04T14:57:07.846Z,7.28
2022-08-04T14:59:59.140Z,7.53
2022-08-04T15:02:36.027Z,6.22
2022-08-04T15:05:54.480Z,5.47
2022-08-04T15:08:00.355Z,8.10
2022-08-04T15:10:35.449Z,10.40
2022-08-04T15:13:08.164Z,6.78
2022-08-04T15:15:41.132Z,7.10
2022-08-04T15:18:13.688Z,6.93
2022-08-04T15:20:47.095Z,7.82
2022-08-04T15:23:19.248Z,8.85
2022-08-04T15:25:57.778Z,8.27
2022-08-04T15:28:31.484Z,7.93
2022-08-04T15:31:10.595Z,7.22
2022-08-04T15:34:03.970Z,7.75
2022-08-04T15:36:57.049Z,6.60
2022-08-04T15:39:43.883Z,6.95
2022-08-04T15:42:30.753Z,8.68
2022-08-04T15:45:14.619Z,7.03
2022-08-04T15:48:04.446Z,6.68
2022-08-04T15:50:57.887Z,8.05
2022-08-04T15:54:03.001Z,5.82
2022-08-04T15:56:32.605Z,6.72
2022-08-04T15:59:04.562Z,5.68
2022-08-04T16:01:40.332Z,6.10
2022-08-04T16:04:31.562Z,5.72
2022-08-04T16:07:07.405Z,8.05
2022-08-04T16:09:45.832Z,10.20
2022-08-04T16:12:54.883Z,6.00
2022-08-04T16:15:48.262Z,9.23
2022-08-04T16:18:27.243Z,6.57
2022-08-04T16:21:03.295Z,7.50
2022-08-04T16:23:56.062Z,8.68
2022-08-04T16:26:45.807Z,10.48
2022-08-04T16:29:24.373Z,8.25
2022-08-04T16:32:05.842Z,9.10
2022-08-04T16:34:49.608Z,8.75
2022-08-04T16:37:42.639Z,7.45
2022-08-04T16:40:34.149Z,6.00
2022-08-04T16:43:14.653Z,8.18
2022-08-04T16:46:00.874Z,9.20
2022-08-04T16:48:38.139Z,8.40
2022-08-04T16:51:14.650Z,6.35
2022-08-04T16:54:02.623Z,5.68
2022-08-04T16:56:37.705Z,9.98
2022-08-04T16:59:12.397Z,7.40
2022-08-04T17:01:52.307Z,7.97
2022-08-04T17:04:40.667Z,9.27
2022-08-04T17:07:13.070Z,6.22
2022-08-04T17:09:52.076Z,8.40
2022-08-04T17:12:29.273Z,8.15
2022-08-04T17:15:03.850Z,10.23
2022-08-04T17:18:03.936Z,7.47
2022-08-04T17:21:01.039Z,8.45
2022-08-04T17:24:15.028Z,14.70
2022-08-04T17:26:39.896Z,10.85
2022-08-04T17:29:13.437Z,7.75
2022-08-04T17:31:59.315Z,8.75
2022-08-04T17:34:33.428Z,8.82
2022-08-04T17:37:36.668Z,8.82
2022-08-04T17:40:11.791Z,6.72
2022-08-04T17:42:45.067Z,9.45
2022-08-04T17:45:50.669Z,11.68
2022-08-04T17:48:24.742Z,9.85
2022-08-04T17:51:16.758Z,8.00
2022-08-04T17:54:02.551Z,7.15
2022-08-04T17:56:51.920Z,8.57
2022-08-04T17:59:56.873Z,9.98
2022-08-04T18:02:34.798Z,11.40
2022-08-04T18:05:11.799Z,11.93
2022-08-04T18:08:39.050Z,6.78
2022-08-04T18:10:54.585Z,8.82
2022-08-04T18:13:28.826Z,10.63
2022-08-04T18:16:05.229Z,8.63
2022-08-04T18:18:38.470Z,11.23
2022-08-04T18:21:12.601Z,9.00
2022-08-04T18:23:50.575Z,9.23
2022-08-04T18:26:23.997Z,10.20
2022-08-04T18:28:56.134Z,10.75
2022-08-04T18:31:27.978Z,10.02
2022-08-04T18:34:02.079Z,7.18
2022-08-04T18:36:37.834Z,10.38
2022-08-04T18:39:15.859Z,8.88
2022-08-04T18:42:01.187Z,8.75
2022-08-04T18:44:52.679Z,8.15
2022-08-04T18:50:59.521Z,9.80
2022-08-04T18:53:15.966Z,8.27
2022-08-04T18:55:57.185Z,9.43
2022-08-04T18:58:30.168Z,12.15
2022-08-04T19:01:02.150Z,10.40
2022-08-04T19:03:36.718Z,9.15
2022-08-04T19:06:11.621Z,14.88
2022-08-04T19:08:45.249Z,10.50
2022-08-04T19:11:52.609Z,11.48
2022-08-04T19:14:13.190Z,10.80
2022-08-04T19:16:48.484Z,10.75
2022-08-04T19:22:36.156Z,14.18
2022-08-04T19:25:13.368Z,11.50
2022-08-04T19:28:07.560Z,13.00
2022-08-04T19:30:49.442Z,10.80
2022-08-04T19:33:25.505Z,10.05
2022-08-04T19:36:00.551Z,11.95
2022-08-04T19:38:33.187Z,9.85
2022-08-04T19:41:14.482Z,9.57
2022-08-04T19:43:49.421Z,9.77
2022-08-04T19:46:24.727Z,11.98
2022-08-04T19:49:02.793Z,9.98
2022-08-04T19:51:38.754Z,10.25
2022-08-04T19:54:17.011Z,10.52
2022-08-04T19:56:55.864Z,10.23
2022-08-04T19:59:32.224Z,9.00
2022-08-04T20:02:04.421Z,10.88
2022-08-04T20:04:38.686Z,13.27
2022-08-04T20:07:16.615Z,12.02
2022-08-04T20:09:53.400Z,9.65
2022-08-04T20:12:27.845Z,12.50
2022-08-04T20:15:00.409Z,10.95
2022-08-04T20:18:07.371Z,15.55
2022-08-04T20:20:24.631Z,9.82
2022-08-04T20:22:57.738Z,13.25
2022-08-04T20:25:36.447Z,13.40
2022-08-04T20:28:10.273Z,9.05
2022-08-04T20:31:00.367Z,12.90
2022-08-04T20:33:32.204Z,9.05
2022-08-04T20:36:06.809Z,13.65
2022-08-04T20:38:39.269Z,10.73
2022-08-04T20:41:11.135Z,10.20
2022-08-04T20:43:45.141Z,14.63
2022-08-04T20:46:29.169Z,10.88
2022-08-04T20:49:01.839Z,13.88
2022-08-04T20:51:33.888Z,15.40
2022-08-04T20:54:16.505Z,10.85
2022-08-04T20:56:51.213Z,15.02
2022-08-04T20:59:23.435Z,12.07
2022-08-04T21:01:56.858Z,11.98
2022-08-04T21:04:35.896Z,15.38
2022-08-04T21:07:10.484Z,15.70
2022-08-04T21:09:50.689Z,10.70
2022-08-04T21:12:27.792Z,12.77
2022-08-04T21:15:14.227Z,12.15
2022-08-04T21:17:58.931Z,14.30
2022-08-04T21:20:39.498Z,11.68
2022-08-04T21:23:14.697Z,10.68
2022-08-04T21:25:51.028Z,15.43
2022-08-04T21:28:22.904Z,11.45
2022-08-04T21:31:02.539Z,13.80
2022-08-04T21:33:50.652Z,11.68
2022-08-04T21:36:27.482Z,11.07
2022-08-04T21:38:59.602Z,12.45
2022-08-04T21:41:32.871Z,10.00
2022-08-04T21:44:07.882Z,14.60
2022-08-04T21:46:44.754Z,11.25
2022-08-04T21:49:16.839Z,13.18
2022-08-04T21:52:00.636Z,12.93
2022-08-04T21:54:39.896Z,13.15
2022-08-04T21:57:16.854Z,12.55
2022-08-04T21:59:48.676Z,12.20
2022-08-04T22:02:20.695Z,12.32
2022-08-04T22:04:53.167Z,12.73
2022-08-04T22:07:25.235Z,16.98
2022-08-04T22:10:31.954Z,12.18
2022-08-04T22:13:07.941Z,14.20
2022-08-04T22:16:03.474Z,12.45
2022-08-04T22:18:32.041Z,12.40
2022-08-04T22:21:11.832Z,10.88
2022-08-04T22:23:45.507Z,13.88
2022-08-04T22:26:26.887Z,12.50
2022-08-04T22:28:59.123Z,12.95
2022-08-04T22:31:56.751Z,13.15
2022-08-04T22:34:23.816Z,10.82
2022-08-04T22:36:55.908Z,13.68
2022-08-04T22:39:27.964Z,14.20
2022-08-04T22:42:03.732Z,11.88
2022-08-04T22:44:38.032Z,10.77
2022-08-04T22:47:20.223Z,11.10
2022-08-04T22:50:13.434Z,13.05
2022-08-04T22:52:55.858Z,13.85
2022-08-04T22:55:57.463Z,14.00
2022-08-04T22:58:20.715Z,10.63
2022-08-04T23:01:00.686Z,10.15
2022-08-04T23:03:36.902Z,11.90
2022-08-04T23:06:11.851Z,16.45
2022-08-04T23:08:48.510Z,13.45
2022-08-04T23:11:20.607Z,11.13
2022-08-04T23:13:52.582Z,21.30
2022-08-04T23:16:25.225Z,10.68
2022-08-04T23:19:00.223Z,13.32
2022-08-04T23:21:47.378Z,8.98
2022-08-04T23:24:22.416Z,9.48
2022-08-04T23:26:56.715Z,12.13
2022-08-04T23:29:52.621Z,11.32
2022-08-04T23:32:20.631Z,15.35
2022-08-04T23:34:54.594Z,9.60
2022-08-04T23:37:27.728Z,12.95
2022-08-04T23:40:28.163Z,10.13
2022-08-04T23:43:02.210Z,11.02
2022-08-04T23:46:06.338Z,9.43
2022-08-04T23:48:38.870Z,10.38
2022-08-04T23:51:14.085Z,9.05
2022-08-04T23:54:02.556Z,12.27
2022-08-04T23:56:35.732Z,8.20
2022-08-04T23:59:18.051Z,7.90
